sensor_id;sensor_type;location;lat;lon;timestamp;pressure;altitude;pressure_sealevel;temperature;humidity
46241;BME280;31961;52.416;-0.732;2023-02-15T00:00:52;101786.32;;;0.90;100.00
46241;BME280;31961;52.416;-0.732;2023-02-15T00:03:19;101787.12;;;-0.16;100.00
46241;BME280;31961;52.416;-0.732;2023-02-15T00:05:46;101786.53;;;0.13;100.00
46241;BME280;31961;52.416;-0.732;2023-02-15T00:08:14;101779.06;;;-0.40;100.00
46241;BME280;31961;52.416;-0.732;2023-02-15T00:10:42;101774.94;;;0.08;100.00
46241;BME280;31961;52.416;-0.732;2023-02-15T00:13:10;101774.18;;;-0.22;100.00
46241;BME280;31961;52.416;-0.732;2023-02-15T00:15:37;101773.19;;;0.36;100.00
46241;BME280;31961;52.416;-0.732;2023-02-15T00:18:05;101766.38;;;0.39;100.00
46241;BME280;31961;52.416;-0.732;2023-02-15T00:20:32;101767.69;;;0.61;100.00
46241;BME280;31961;52.416;-0.732;2023-02-15T00:23:00;101767.13;;;0.17;100.00
46241;BME280;31961;52.416;-0.732;2023-02-15T00:25:27;101764.68;;;0.19;100.00
46241;BME280;31961;52.416;-0.732;2023-02-15T00:27:54;101760.63;;;0.36;100.00
46241;BME280;31961;52.416;-0.732;2023-02-15T00:30:21;101757.66;;;0.07;100.00
46241;BME280;31961;52.416;-0.732;2023-02-15T00:32:48;101750.12;;;0.70;100.00
46241;BME280;31961;52.416;-0.732;2023-02-15T00:35:16;101747.97;;;0.33;100.00
46241;BME280;31961;52.416;-0.732;2023-02-15T00:37:44;101743.72;;;0.54;100.00
46241;BME280;31961;52.416;-0.732;2023-02-15T00:40:11;101739.36;;;0.48;100.00
46241;BME280;31961;52.416;-0.732;2023-02-15T00:42:39;101737.29;;;-0.36;100.00
46241;BME280;31961;52.416;-0.732;2023-02-15T00:45:07;101731.84;;;-0.54;100.00
46241;BME280;31961;52.416;-0.732;2023-02-15T00:47:35;101723.22;;;-0.80;100.00
46241;BME280;31961;52.416;-0.732;2023-02-15T00:50:04;101714.67;;;-0.35;100.00
46241;BME280;31961;52.416;-0.732;2023-02-15T00:52:31;101710.18;;;-0.47;100.00
46241;BME280;31961;52.416;-0.732;2023-02-15T00:54:58;101709.83;;;-0.86;100.00
46241;BME280;31961;52.416;-0.732;2023-02-15T00:57:25;101705.07;;;-1.02;100.00
46241;BME280;31961;52.416;-0.732;2023-02-15T00:59:53;101706.40;;;-1.00;100.00
46241;BME280;31961;52.416;-0.732;2023-02-15T01:02:20;101699.65;;;-0.28;100.00
46241;BME280;31961;52.416;-0.732;2023-02-15T01:04:47;101699.20;;;-0.01;100.00
46241;BME280;31961;52.416;-0.732;2023-02-15T01:07:14;101698.56;;;0.05;100.00
46241;BME280;31961;52.416;-0.732;2023-02-15T01:09:42;101696.16;;;-0.33;100.00
46241;BME280;31961;52.416;-0.732;2023-02-15T01:12:09;101690.61;;;-0.27;100.00
46241;BME280;31961;52.416;-0.732;2023-02-15T01:14:37;101684.33;;;0.02;100.00
46241;BME280;31961;52.416;-0.732;2023-02-15T01:17:04;101678.00;;;0.39;100.00
46241;BME280;31961;52.416;-0.732;2023-02-15T01:19:31;101671.94;;;0.33;100.00
46241;BME280;31961;52.416;-0.732;2023-02-15T01:21:58;101669.61;;;-0.71;100.00
46241;BME280;31961;52.416;-0.732;2023-02-15T01:24:25;101665.09;;;0.20;100.00
46241;BME280;31961;52.416;-0.732;2023-02-15T01:26:52;101660.26;;;-0.51;100.00
46241;BME280;31961;52.416;-0.732;2023-02-15T01:29:19;101656.03;;;-0.38;100.00
46241;BME280;31961;52.416;-0.732;2023-02-15T01:31:46;101656.07;;;0.11;100.00
46241;BME280;31961;52.416;-0.732;2023-02-15T01:34:14;101655.04;;;-0.08;100.00
46241;BME280;31961;52.416;-0.732;2023-02-15T01:36:41;101654.65;;;0.20;100.00
46241;BME280;31961;52.416;-0.732;2023-02-15T01:39:09;101651.69;;;-0.37;100.00
46241;BME280;31961;52.416;-0.732;2023-02-15T01:41:36;101647.73;;;0.00;100.00
46241;BME280;31961;52.416;-0.732;2023-02-15T01:44:46;101645.04;;;-0.15;100.00
46241;BME280;31961;52.416;-0.732;2023-02-15T01:47:16;101639.59;;;-0.66;100.00
46241;BME280;31961;52.416;-0.732;2023-02-15T01:49:46;101641.44;;;-0.60;100.00
46241;BME280;31961;52.416;-0.732;2023-02-15T01:52:16;101642.79;;;-0.96;100.00
46241;BME280;31961;52.416;-0.732;2023-02-15T01:54:47;101636.91;;;-0.61;100.00
46241;BME280;31961;52.416;-0.732;2023-02-15T01:57:18;101641.22;;;-0.08;100.00
46241;BME280;31961;52.416;-0.732;2023-02-15T01:59:48;101636.95;;;0.00;100.00
46241;BME280;31961;52.416;-0.732;2023-02-15T02:02:18;101630.76;;;0.82;100.00
46241;BME280;31961;52.416;-0.732;2023-02-15T02:04:48;101628.91;;;0.13;100.00
46241;BME280;31961;52.416;-0.732;2023-02-15T02:07:18;101624.33;;;0.50;100.00
46241;BME280;31961;52.416;-0.732;2023-02-15T02:09:47;101628.90;;;0.15;100.00
46241;BME280;31961;52.416;-0.732;2023-02-15T02:12:16;101622.99;;;0.45;100.00
46241;BME280;31961;52.416;-0.732;2023-02-15T02:14:45;101623.85;;;0.15;100.00
46241;BME280;31961;52.416;-0.732;2023-02-15T02:17:17;101621.57;;;0.08;100.00
46241;BME280;31961;52.416;-0.732;2023-02-15T02:20:14;101612.25;;;0.49;100.00
46241;BME280;31961;52.416;-0.732;2023-02-15T02:23:32;101607.98;;;0.72;100.00
46241;BME280;31961;52.416;-0.732;2023-02-15T02:26:22;101603.99;;;0.51;100.00
46241;BME280;31961;52.416;-0.732;2023-02-15T02:29:34;101593.66;;;0.09;100.00
46241;BME280;31961;52.416;-0.732;2023-02-15T02:32:24;101586.20;;;-0.49;100.00
46241;BME280;31961;52.416;-0.732;2023-02-15T02:34:59;101582.87;;;-0.44;100.00
46241;BME280;31961;52.416;-0.732;2023-02-15T02:37:33;101580.35;;;-0.52;100.00
46241;BME280;31961;52.416;-0.732;2023-02-15T02:40:08;101574.12;;;0.43;100.00
46241;BME280;31961;52.416;-0.732;2023-02-15T02:42:40;101563.42;;;0.01;100.00
46241;BME280;31961;52.416;-0.732;2023-02-15T02:45:11;101562.41;;;0.18;100.00
46241;BME280;31961;52.416;-0.732;2023-02-15T02:47:44;101564.53;;;-0.02;100.00
46241;BME280;31961;52.416;-0.732;2023-02-15T02:50:16;101561.03;;;0.31;100.00
46241;BME280;31961;52.416;-0.732;2023-02-15T02:52:47;101562.90;;;-0.49;100.00
46241;BME280;31961;52.416;-0.732;2023-02-15T02:55:17;101555.72;;;-0.58;100.00
46241;BME280;31961;52.416;-0.732;2023-02-15T02:57:53;101557.05;;;-0.93;100.00
46241;BME280;31961;52.416;-0.732;2023-02-15T03:00:23;101552.83;;;-0.24;100.00
46241;BME280;31961;52.416;-0.732;2023-02-15T03:02:56;101546.79;;;-1.06;100.00
46241;BME280;31961;52.416;-0.732;2023-02-15T03:05:27;101550.17;;;-0.26;100.00
46241;BME280;31961;52.416;-0.732;2023-02-15T03:07:56;101547.69;;;-0.78;100.00
46241;BME280;31961;52.416;-0.732;2023-02-15T03:10:25;101544.72;;;-0.42;100.00
46241;BME280;31961;52.416;-0.732;2023-02-15T03:12:53;101542.84;;;-0.35;100.00
46241;BME280;31961;52.416;-0.732;2023-02-15T03:15:24;101536.00;;;-0.43;100.00
46241;BME280;31961;52.416;-0.732;2023-02-15T03:17:57;101530.58;;;0.03;100.00
46241;BME280;31961;52.416;-0.732;2023-02-15T03:20:30;101527.94;;;-0.01;100.00
46241;BME280;31961;52.416;-0.732;2023-02-15T03:23:00;101525.35;;;0.25;100.00
46241;BME280;31961;52.416;-0.732;2023-02-15T03:25:32;101521.68;;;-0.81;100.00
46241;BME280;31961;52.416;-0.732;2023-02-15T03:28:03;101518.14;;;-0.36;100.00
46241;BME280;31961;52.416;-0.732;2023-02-15T03:30:32;101500.70;;;-0.54;100.00
46241;BME280;31961;52.416;-0.732;2023-02-15T03:33:03;101492.20;;;-0.46;100.00
46241;BME280;31961;52.416;-0.732;2023-02-15T03:35:35;101489.95;;;-0.62;100.00
46241;BME280;31961;52.416;-0.732;2023-02-15T03:38:06;101487.41;;;-1.24;100.00
46241;BME280;31961;52.416;-0.732;2023-02-15T03:40:37;101485.80;;;-1.56;100.00
46241;BME280;31961;52.416;-0.732;2023-02-15T03:43:11;101484.46;;;-1.47;100.00
46241;BME280;31961;52.416;-0.732;2023-02-15T03:45:44;101483.19;;;-1.56;100.00
46241;BME280;31961;52.416;-0.732;2023-02-15T03:48:13;101481.74;;;-1.12;100.00
46241;BME280;31961;52.416;-0.732;2023-02-15T03:50:42;101474.76;;;-1.09;100.00
46241;BME280;31961;52.416;-0.732;2023-02-15T03:53:12;101475.24;;;-1.44;100.00
46241;BME280;31961;52.416;-0.732;2023-02-15T03:55:41;101477.23;;;-1.49;100.00
46241;BME280;31961;52.416;-0.732;2023-02-15T03:58:08;101474.36;;;-1.90;100.00
46241;BME280;31961;52.416;-0.732;2023-02-15T04:00:38;101472.29;;;-0.97;100.00
46241;BME280;31961;52.416;-0.732;2023-02-15T04:03:19;101473.59;;;-1.01;100.00
46241;BME280;31961;52.416;-0.732;2023-02-15T04:05:50;101469.56;;;-1.00;100.00
46241;BME280;31961;52.416;-0.732;2023-02-15T04:08:17;101463.47;;;-0.65;100.00
46241;BME280;31961;52.416;-0.732;2023-02-15T04:10:45;101458.61;;;-0.93;100.00
46241;BME280;31961;52.416;-0.732;2023-02-15T04:13:12;101461.33;;;-1.18;100.00
46241;BME280;31961;52.416;-0.732;2023-02-15T04:15:39;101464.03;;;-1.33;100.00
46241;BME280;31961;52.416;-0.732;2023-02-15T04:18:06;101459.66;;;-1.19;100.00
46241;BME280;31961;52.416;-0.732;2023-02-15T04:20:33;101463.26;;;-1.03;100.00
46241;BME280;31961;52.416;-0.732;2023-02-15T04:23:01;101462.13;;;-1.13;100.00
46241;BME280;31961;52.416;-0.732;2023-02-15T04:25:32;101461.26;;;-0.73;100.00
46241;BME280;31961;52.416;-0.732;2023-02-15T04:27:59;101456.16;;;-0.38;100.00
46241;BME280;31961;52.416;-0.732;2023-02-15T04:30:26;101455.49;;;-0.57;100.00
46241;BME280;31961;52.416;-0.732;2023-02-15T04:32:53;101450.85;;;-0.23;100.00
46241;BME280;31961;52.416;-0.732;2023-02-15T04:35:21;101446.66;;;-0.19;100.00
46241;BME280;31961;52.416;-0.732;2023-02-15T04:37:48;101443.83;;;-0.57;100.00
46241;BME280;31961;52.416;-0.732;2023-02-15T04:40:17;101444.28;;;-0.56;100.00
46241;BME280;31961;52.416;-0.732;2023-02-15T04:42:47;101437.80;;;-0.26;100.00
46241;BME280;31961;52.416;-0.732;2023-02-15T04:45:14;101435.51;;;-0.68;100.00
46241;BME280;31961;52.416;-0.732;2023-02-15T04:47:42;101439.09;;;-1.53;100.00
46241;BME280;31961;52.416;-0.732;2023-02-15T04:50:10;101433.36;;;-0.95;100.00
46241;BME280;31961;52.416;-0.732;2023-02-15T04:52:37;101431.47;;;-0.96;100.00
46241;BME280;31961;52.416;-0.732;2023-02-15T04:55:05;101426.92;;;-0.55;100.00
46241;BME280;31961;52.416;-0.732;2023-02-15T04:57:32;101419.58;;;-0.71;100.00
46241;BME280;31961;52.416;-0.732;2023-02-15T04:59:59;101415.18;;;-0.65;100.00
46241;BME280;31961;52.416;-0.732;2023-02-15T05:02:26;101411.84;;;-1.86;100.00
46241;BME280;31961;52.416;-0.732;2023-02-15T05:04:54;101411.25;;;-1.04;100.00
46241;BME280;31961;52.416;-0.732;2023-02-15T05:07:21;101415.11;;;-1.46;100.00
46241;BME280;31961;52.416;-0.732;2023-02-15T05:09:48;101412.98;;;-0.72;100.00
46241;BME280;31961;52.416;-0.732;2023-02-15T05:12:16;101408.73;;;-0.37;100.00
46241;BME280;31961;52.416;-0.732;2023-02-15T05:14:43;101407.44;;;-0.39;100.00
46241;BME280;31961;52.416;-0.732;2023-02-15T05:17:10;101406.13;;;-0.27;100.00
46241;BME280;31961;52.416;-0.732;2023-02-15T05:19:37;101404.37;;;-0.21;100.00
46241;BME280;31961;52.416;-0.732;2023-02-15T05:22:04;101404.95;;;-0.05;100.00
46241;BME280;31961;52.416;-0.732;2023-02-15T05:24:31;101403.63;;;-1.49;100.00
46241;BME280;31961;52.416;-0.732;2023-02-15T05:26:59;101402.19;;;-1.57;100.00
46241;BME280;31961;52.416;-0.732;2023-02-15T05:29:26;101395.22;;;-1.16;100.00
46241;BME280;31961;52.416;-0.732;2023-02-15T05:31:53;101385.07;;;-0.50;100.00
46241;BME280;31961;52.416;-0.732;2023-02-15T05:34:20;101385.08;;;-0.58;100.00
46241;BME280;31961;52.416;-0.732;2023-02-15T05:36:48;101380.96;;;-0.15;100.00
46241;BME280;31961;52.416;-0.732;2023-02-15T05:39:15;101379.96;;;-1.27;100.00
46241;BME280;31961;52.416;-0.732;2023-02-15T05:41:42;101370.55;;;-0.25;100.00
46241;BME280;31961;52.416;-0.732;2023-02-15T05:44:09;101367.13;;;-0.17;100.00
46241;BME280;31961;52.416;-0.732;2023-02-15T05:46:36;101362.00;;;-0.67;100.00
46241;BME280;31961;52.416;-0.732;2023-02-15T05:49:04;101358.65;;;-0.12;100.00
46241;BME280;31961;52.416;-0.732;2023-02-15T05:51:31;101361.61;;;-0.17;100.00
46241;BME280;31961;52.416;-0.732;2023-02-15T05:53:59;101360.54;;;0.23;100.00
46241;BME280;31961;52.416;-0.732;2023-02-15T05:56:26;101362.50;;;-0.10;100.00
46241;BME280;31961;52.416;-0.732;2023-02-15T05:58:54;101364.34;;;-0.87;100.00
46241;BME280;31961;52.416;-0.732;2023-02-15T06:01:21;101372.72;;;-1.60;100.00
46241;BME280;31961;52.416;-0.732;2023-02-15T06:03:48;101368.90;;;-1.68;100.00
46241;BME280;31961;52.416;-0.732;2023-02-15T06:06:15;101353.97;;;-0.45;100.00
46241;BME280;31961;52.416;-0.732;2023-02-15T06:08:43;101356.55;;;-0.91;100.00
46241;BME280;31961;52.416;-0.732;2023-02-15T06:11:11;101359.53;;;-0.12;100.00
46241;BME280;31961;52.416;-0.732;2023-02-15T06:13:38;101358.87;;;-1.35;100.00
46241;BME280;31961;52.416;-0.732;2023-02-15T06:16:06;101363.04;;;-0.01;100.00
46241;BME280;31961;52.416;-0.732;2023-02-15T06:18:33;101363.79;;;-0.43;100.00
46241;BME280;31961;52.416;-0.732;2023-02-15T06:21:00;101360.29;;;-0.45;100.00
46241;BME280;31961;52.416;-0.732;2023-02-15T06:23:28;101358.75;;;-0.19;100.00
46241;BME280;31961;52.416;-0.732;2023-02-15T06:25:55;101360.60;;;-1.12;100.00
46241;BME280;31961;52.416;-0.732;2023-02-15T06:28:22;101360.96;;;-0.63;100.00
46241;BME280;31961;52.416;-0.732;2023-02-15T06:30:50;101360.54;;;0.02;100.00
46241;BME280;31961;52.416;-0.732;2023-02-15T06:33:17;101364.37;;;0.13;100.00
46241;BME280;31961;52.416;-0.732;2023-02-15T06:35:45;101367.86;;;-0.02;100.00
46241;BME280;31961;52.416;-0.732;2023-02-15T06:38:12;101364.26;;;0.12;100.00
46241;BME280;31961;52.416;-0.732;2023-02-15T06:40:39;101370.53;;;0.18;100.00
46241;BME280;31961;52.416;-0.732;2023-02-15T06:43:07;101376.61;;;0.40;100.00
46241;BME280;31961;52.416;-0.732;2023-02-15T06:45:34;101376.11;;;0.49;100.00
46241;BME280;31961;52.416;-0.732;2023-02-15T06:48:02;101377.24;;;0.23;100.00
46241;BME280;31961;52.416;-0.732;2023-02-15T06:50:29;101374.13;;;0.31;100.00
46241;BME280;31961;52.416;-0.732;2023-02-15T06:52:57;101375.29;;;-0.55;100.00
46241;BME280;31961;52.416;-0.732;2023-02-15T06:55:25;101381.76;;;0.11;100.00
46241;BME280;31961;52.416;-0.732;2023-02-15T06:57:52;101382.04;;;-0.95;100.00
46241;BME280;31961;52.416;-0.732;2023-02-15T07:00:20;101378.38;;;0.15;100.00
46241;BME280;31961;52.416;-0.732;2023-02-15T07:02:47;101384.67;;;-0.44;100.00
46241;BME280;31961;52.416;-0.732;2023-02-15T07:05:15;101390.38;;;-0.30;100.00
46241;BME280;31961;52.416;-0.732;2023-02-15T07:07:43;101385.29;;;-0.32;100.00
46241;BME280;31961;52.416;-0.732;2023-02-15T07:10:09;101386.29;;;0.11;100.00
46241;BME280;31961;52.416;-0.732;2023-02-15T07:12:37;101390.61;;;-0.97;100.00
46241;BME280;31961;52.416;-0.732;2023-02-15T07:15:04;101392.46;;;0.04;100.00
46241;BME280;31961;52.416;-0.732;2023-02-15T07:17:32;101393.80;;;0.26;100.00
46241;BME280;31961;52.416;-0.732;2023-02-15T07:19:59;101394.54;;;-0.08;100.00
46241;BME280;31961;52.416;-0.732;2023-02-15T07:22:27;101390.18;;;0.14;100.00
46241;BME280;31961;52.416;-0.732;2023-02-15T07:24:54;101389.98;;;0.41;100.00
46241;BME280;31961;52.416;-0.732;2023-02-15T07:27:21;101389.67;;;0.07;100.00
46241;BME280;31961;52.416;-0.732;2023-02-15T07:29:48;101388.04;;;0.27;100.00
46241;BME280;31961;52.416;-0.732;2023-02-15T07:32:15;101385.74;;;0.82;100.00
46241;BME280;31961;52.416;-0.732;2023-02-15T07:34:43;101388.52;;;0.59;100.00
46241;BME280;31961;52.416;-0.732;2023-02-15T07:37:10;101381.33;;;0.77;100.00
46241;BME280;31961;52.416;-0.732;2023-02-15T07:39:37;101382.59;;;0.49;100.00
46241;BME280;31961;52.416;-0.732;2023-02-15T07:42:04;101383.87;;;0.93;100.00
46241;BME280;31961;52.416;-0.732;2023-02-15T07:44:31;101377.10;;;1.12;100.00
46241;BME280;31961;52.416;-0.732;2023-02-15T07:46:58;101373.23;;;1.02;100.00
46241;BME280;31961;52.416;-0.732;2023-02-15T07:49:26;101377.56;;;0.85;100.00
46241;BME280;31961;52.416;-0.732;2023-02-15T07:51:53;101379.65;;;1.11;100.00
46241;BME280;31961;52.416;-0.732;2023-02-15T07:54:21;101377.83;;;0.96;100.00
46241;BME280;31961;52.416;-0.732;2023-02-15T07:56:48;101375.86;;;1.53;100.00
46241;BME280;31961;52.416;-0.732;2023-02-15T07:59:16;101375.59;;;1.66;100.00
46241;BME280;31961;52.416;-0.732;2023-02-15T08:01:42;101369.98;;;1.49;100.00
46241;BME280;31961;52.416;-0.732;2023-02-15T08:04:10;101370.11;;;1.52;100.00
46241;BME280;31961;52.416;-0.732;2023-02-15T08:06:37;101370.25;;;1.44;100.00
46241;BME280;31961;52.416;-0.732;2023-02-15T08:09:06;101364.18;;;1.51;100.00
46241;BME280;31961;52.416;-0.732;2023-02-15T08:11:35;101363.54;;;1.82;100.00
46241;BME280;31961;52.416;-0.732;2023-02-15T08:14:05;101364.74;;;1.64;100.00
46241;BME280;31961;52.416;-0.732;2023-02-15T08:16:35;101371.47;;;1.81;100.00
46241;BME280;31961;52.416;-0.732;2023-02-15T08:19:05;101372.60;;;1.85;100.00
46241;BME280;31961;52.416;-0.732;2023-02-15T08:21:34;101373.64;;;1.96;100.00
46241;BME280;31961;52.416;-0.732;2023-02-15T08:24:02;101369.41;;;1.88;100.00
46241;BME280;31961;52.416;-0.732;2023-02-15T08:26:30;101372.63;;;1.41;100.00
46241;BME280;31961;52.416;-0.732;2023-02-15T08:28:59;101362.11;;;2.15;100.00
46241;BME280;31961;52.416;-0.732;2023-02-15T08:31:27;101361.94;;;0.67;100.00
46241;BME280;31961;52.416;-0.732;2023-02-15T08:33:56;101364.10;;;1.43;100.00
46241;BME280;31961;52.416;-0.732;2023-02-15T08:36:26;101361.18;;;1.24;100.00
46241;BME280;31961;52.416;-0.732;2023-02-15T08:38:54;101349.90;;;1.71;100.00
46241;BME280;31961;52.416;-0.732;2023-02-15T08:41:24;101352.60;;;1.13;100.00
46241;BME280;31961;52.416;-0.732;2023-02-15T08:43:53;101341.50;;;1.59;100.00
46241;BME280;31961;52.416;-0.732;2023-02-15T08:46:22;101344.84;;;0.85;100.00
46241;BME280;31961;52.416;-0.732;2023-02-15T08:48:50;101352.61;;;0.25;100.00
46241;BME280;31961;52.416;-0.732;2023-02-15T08:51:19;101345.03;;;-0.26;100.00
46241;BME280;31961;52.416;-0.732;2023-02-15T08:53:48;101337.03;;;1.23;100.00
46241;BME280;31961;52.416;-0.732;2023-02-15T08:56:16;101328.62;;;1.40;100.00
46241;BME280;31961;52.416;-0.732;2023-02-15T08:58:45;101328.48;;;0.58;100.00
46241;BME280;31961;52.416;-0.732;2023-02-15T09:01:14;101323.44;;;1.30;100.00
46241;BME280;31961;52.416;-0.732;2023-02-15T09:03:42;101322.04;;;0.93;100.00
46241;BME280;31961;52.416;-0.732;2023-02-15T09:06:10;101315.12;;;1.64;100.00
46241;BME280;31961;52.416;-0.732;2023-02-15T09:08:37;101316.26;;;2.04;100.00
46241;BME280;31961;52.416;-0.732;2023-02-15T09:11:07;101313.41;;;2.40;100.00
46241;BME280;31961;52.416;-0.732;2023-02-15T09:13:34;101316.02;;;2.51;100.00
46241;BME280;31961;52.416;-0.732;2023-02-15T09:16:02;101310.03;;;2.32;100.00
46241;BME280;31961;52.416;-0.732;2023-02-15T09:18:31;101310.81;;;2.54;100.00
46241;BME280;31961;52.416;-0.732;2023-02-15T09:21:04;101314.27;;;1.18;100.00
46241;BME280;31961;52.416;-0.732;2023-02-15T09:23:31;101307.41;;;2.20;100.00
46241;BME280;31961;52.416;-0.732;2023-02-15T09:26:03;101307.21;;;2.18;100.00
46241;BME280;31961;52.416;-0.732;2023-02-15T09:28:30;101307.40;;;1.99;100.00
46241;BME280;31961;52.416;-0.732;2023-02-15T09:30:57;101312.83;;;2.52;100.00
46241;BME280;31961;52.416;-0.732;2023-02-15T09:33:30;101311.44;;;2.90;100.00
46241;BME280;31961;52.416;-0.732;2023-02-15T09:35:58;101315.01;;;2.92;100.00
46241;BME280;31961;52.416;-0.732;2023-02-15T09:38:24;101315.63;;;2.80;100.00
46241;BME280;31961;52.416;-0.732;2023-02-15T09:41:00;101316.35;;;3.19;100.00
46241;BME280;31961;52.416;-0.732;2023-02-15T09:43:36;101311.82;;;3.08;100.00
46241;BME280;31961;52.416;-0.732;2023-02-15T09:46:17;101322.57;;;2.25;100.00
46241;BME280;31961;52.416;-0.732;2023-02-15T09:48:49;101325.40;;;2.37;100.00
46241;BME280;31961;52.416;-0.732;2023-02-15T09:51:32;101318.63;;;2.96;100.00
46241;BME280;31961;52.416;-0.732;2023-02-15T09:54:13;101317.92;;;2.76;100.00
46241;BME280;31961;52.416;-0.732;2023-02-15T09:56:48;101317.62;;;3.54;100.00
46241;BME280;31961;52.416;-0.732;2023-02-15T09:59:24;101318.13;;;2.78;100.00
46241;BME280;31961;52.416;-0.732;2023-02-15T10:02:02;101315.51;;;2.74;100.00
46241;BME280;31961;52.416;-0.732;2023-02-15T10:04:47;101318.05;;;1.99;100.00
46241;BME280;31961;52.416;-0.732;2023-02-15T10:07:28;101312.25;;;1.09;100.00
46241;BME280;31961;52.416;-0.732;2023-02-15T10:10:09;101309.72;;;2.01;100.00
46241;BME280;31961;52.416;-0.732;2023-02-15T10:12:53;101301.30;;;1.87;100.00
46241;BME280;31961;52.416;-0.732;2023-02-15T10:15:30;101294.03;;;2.35;100.00
46241;BME280;31961;52.416;-0.732;2023-02-15T10:18:10;101287.67;;;2.81;100.00
46241;BME280;31961;52.416;-0.732;2023-02-15T10:20:52;101287.42;;;2.94;100.00
46241;BME280;31961;52.416;-0.732;2023-02-15T10:23:36;101281.51;;;3.11;100.00
46241;BME280;31961;52.416;-0.732;2023-02-15T10:26:12;101280.81;;;2.55;100.00
46241;BME280;31961;52.416;-0.732;2023-02-15T10:28:48;101283.22;;;2.76;100.00
46241;BME280;31961;52.416;-0.732;2023-02-15T10:31:23;101281.92;;;3.01;100.00
46241;BME280;31961;52.416;-0.732;2023-02-15T10:34:05;101285.04;;;3.49;100.00
46241;BME280;31961;52.416;-0.732;2023-02-15T10:37:19;101284.65;;;3.52;100.00
46241;BME280;31961;52.416;-0.732;2023-02-15T10:39:59;101286.21;;;4.03;100.00
46241;BME280;31961;52.416;-0.732;2023-02-15T10:42:39;101292.67;;;3.47;100.00
46241;BME280;31961;52.416;-0.732;2023-02-15T10:45:20;101302.02;;;3.87;100.00
46241;BME280;31961;52.416;-0.732;2023-02-15T10:48:01;101294.71;;;3.56;100.00
46241;BME280;31961;52.416;-0.732;2023-02-15T10:50:46;101297.69;;;4.19;100.00
46241;BME280;31961;52.416;-0.732;2023-02-15T10:53:26;101308.43;;;3.36;100.00
46241;BME280;31961;52.416;-0.732;2023-02-15T10:56:04;101304.00;;;3.27;100.00
46241;BME280;31961;52.416;-0.732;2023-02-15T10:58:42;101290.43;;;3.27;100.00
46241;BME280;31961;52.416;-0.732;2023-02-15T11:01:23;101296.95;;;3.96;100.00
46241;BME280;31961;52.416;-0.732;2023-02-15T11:04:09;101293.61;;;4.71;100.00
46241;BME280;31961;52.416;-0.732;2023-02-15T11:06:44;101282.30;;;4.28;100.00
46241;BME280;31961;52.416;-0.732;2023-02-15T11:09:16;101263.91;;;5.44;100.00
46241;BME280;31961;52.416;-0.732;2023-02-15T11:11:48;101259.57;;;4.65;100.00
46241;BME280;31961;52.416;-0.732;2023-02-15T11:14:21;101254.00;;;5.32;100.00
46241;BME280;31961;52.416;-0.732;2023-02-15T11:16:52;101244.04;;;5.06;100.00
46241;BME280;31961;52.416;-0.732;2023-02-15T11:19:26;101238.46;;;5.31;100.00
46241;BME280;31961;52.416;-0.732;2023-02-15T11:21:57;101244.37;;;5.14;100.00
46241;BME280;31961;52.416;-0.732;2023-02-15T11:24:27;101239.37;;;5.77;100.00
46241;BME280;31961;52.416;-0.732;2023-02-15T11:26:59;101247.12;;;5.20;100.00
46241;BME280;31961;52.416;-0.732;2023-02-15T11:29:33;101238.33;;;4.92;100.00
46241;BME280;31961;52.416;-0.732;2023-02-15T11:32:13;101249.34;;;5.07;100.00
46241;BME280;31961;52.416;-0.732;2023-02-15T11:34:49;101262.66;;;5.11;100.00
46241;BME280;31961;52.416;-0.732;2023-02-15T11:37:24;101271.88;;;5.08;100.00
46241;BME280;31961;52.416;-0.732;2023-02-15T11:39:55;101270.94;;;4.85;100.00
46241;BME280;31961;52.416;-0.732;2023-02-15T11:42:23;101268.47;;;4.90;100.00
46241;BME280;31961;52.416;-0.732;2023-02-15T11:44:58;101257.77;;;5.57;100.00
46241;BME280;31961;52.416;-0.732;2023-02-15T11:47:27;101259.64;;;5.13;100.00
46241;BME280;31961;52.416;-0.732;2023-02-15T11:49:54;101244.10;;;5.92;100.00
46241;BME280;31961;52.416;-0.732;2023-02-15T11:52:22;101245.76;;;5.17;100.00
46241;BME280;31961;52.416;-0.732;2023-02-15T11:54:51;101249.67;;;5.16;100.00
46241;BME280;31961;52.416;-0.732;2023-02-15T11:57:23;101245.09;;;5.73;100.00
46241;BME280;31961;52.416;-0.732;2023-02-15T11:59:58;101251.68;;;5.28;100.00
46241;BME280;31961;52.416;-0.732;2023-02-15T12:02:28;101237.31;;;5.50;100.00
46241;BME280;31961;52.416;-0.732;2023-02-15T12:04:58;101233.19;;;5.47;100.00
46241;BME280;31961;52.416;-0.732;2023-02-15T12:07:30;101234.01;;;5.15;100.00
46241;BME280;31961;52.416;-0.732;2023-02-15T12:10:03;101232.16;;;5.93;100.00
46241;BME280;31961;52.416;-0.732;2023-02-15T12:12:32;101214.53;;;6.87;100.00
46241;BME280;31961;52.416;-0.732;2023-02-15T12:15:01;101208.69;;;7.08;100.00
46241;BME280;31961;52.416;-0.732;2023-02-15T12:17:32;101203.56;;;6.84;100.00
46241;BME280;31961;52.416;-0.732;2023-02-15T12:20:02;101205.22;;;6.43;100.00
46241;BME280;31961;52.416;-0.732;2023-02-15T12:22:33;101206.17;;;6.65;100.00
46241;BME280;31961;52.416;-0.732;2023-02-15T12:25:04;101206.56;;;6.60;100.00
46241;BME280;31961;52.416;-0.732;2023-02-15T12:27:43;101212.93;;;6.30;100.00
46241;BME280;31961;52.416;-0.732;2023-02-15T12:30:18;101211.36;;;7.22;100.00
46241;BME280;31961;52.416;-0.732;2023-02-15T12:32:49;101208.37;;;6.83;100.00
46241;BME280;31961;52.416;-0.732;2023-02-15T12:35:26;101210.41;;;6.86;100.00
46241;BME280;31961;52.416;-0.732;2023-02-15T12:38:04;101212.20;;;6.03;100.00
46241;BME280;31961;52.416;-0.732;2023-02-15T12:40:33;101204.51;;;7.07;100.00
46241;BME280;31961;52.416;-0.732;2023-02-15T12:43:01;101198.93;;;6.50;100.00
46241;BME280;31961;52.416;-0.732;2023-02-15T12:45:31;101203.20;;;6.01;100.00
46241;BME280;31961;52.416;-0.732;2023-02-15T12:48:16;101197.04;;;7.11;100.00
46241;BME280;31961;52.416;-0.732;2023-02-15T12:50:45;101200.67;;;6.80;100.00
46241;BME280;31961;52.416;-0.732;2023-02-15T12:53:16;101190.03;;;7.53;100.00